Darton, United Kingdom
Current Conditions -  °F | °C
As of 9:20 PM on Friday 19 Dec 2014 (Local Time) from EGNM Reporting Station
Rain Showers Rain Showers  
Wind Chill: -1°   Ceiling: Unl
Heat Index:   Visibility: 6mi
Dew Point:   Wind: 24mph
Humidity: 87%   Direction: 270°W
Pressure: 29.94"   Gusts: 43mph
Location:  53.59°N, 1.53°W
Report Text: EGNM 192120Z 27021G37KT 230V300 9999 -SHRA FEW030 05/03 Q1014
Loading
Personal Weather Stations






























Interactive Weather Map New forecast layout! Learn more

10-Day Weather Forecast

Advertisements
Track Severe Weather on mobile